Time,TemperatureF,DewpointF,PressureIn,WindDirection,WindDirectionDegrees,WindSpeedMPH,WindSpeedGustMPH,Humidity,HourlyPrecipIn,Conditions,Clouds,dailyrainin,SoftwareType,DateUTC
2013-05-19 00:00:00,65.3,61.3,30.13,East,90,0.0,5.0,87,0.00,RA,,0.00,WeatherDisplay:10.37,2013-05-19 04:00:00,
2013-05-19 00:30:00,65.1,60.8,30.13,East,90,1.0,4.0,86,0.00,OVC,,0.00,WeatherDisplay:10.37,2013-05-19 04:30:00,
2013-05-19 01:00:00,64.7,61.1,30.13,East,88,3.0,6.0,88,0.00,OVC,,0.00,WeatherDisplay:10.37,2013-05-19 05:00:00,
2013-05-19 01:30:00,64.4,61.1,30.12,East,89,3.0,5.0,89,0.01,RA,,0.01,WeatherDisplay:10.37,2013-05-19 05:30:00,
2013-05-19 02:00:00,64.0,60.7,30.12,East,90,3.0,6.0,89,0.01,OVC,,0.02,WeatherDisplay:10.37,2013-05-19 06:00:00,
2013-05-19 02:30:00,64.0,61.0,30.12,East,90,2.0,5.0,90,0.00,OVC,,0.02,WeatherDisplay:10.37,2013-05-19 06:30:00,
2013-05-19 03:00:00,64.0,61.0,30.11,East,88,1.0,5.0,90,0.00,OVC,,0.02,WeatherDisplay:10.37,2013-05-19 07:00:00,
2013-05-19 03:30:00,64.0,61.0,30.11,East,90,2.0,3.0,90,0.00,OVC,,0.02,WeatherDisplay:10.37,2013-05-19 07:30:00,
2013-05-19 04:00:00,64.0,61.0,30.11,East,89,2.0,3.0,90,0.00,OVC,,0.02,WeatherDisplay:10.37,2013-05-19 08:00:00,
2013-05-19 04:30:00,64.1,61.1,30.11,East,87,2.0,5.0,90,0.00,OVC,,0.02,WeatherDisplay:10.37,2013-05-19 08:30:00,
2013-05-19 05:00:00,64.2,61.5,30.11,East,90,3.0,5.0,91,0.00,OVC,,0.02,WeatherDisplay:10.37,2013-05-19 09:00:00,
2013-05-19 05:30:00,64.2,61.5,30.11,East,90,2.0,5.0,91,0.00,OVC,,0.02,WeatherDisplay:10.37,2013-05-19 09:30:00,
2013-05-19 07:00:00,64.4,61.7,30.13,East,90,2.0,5.0,91,0.00,OVC,,0.02,WeatherDisplay:10.37,2013-05-19 11:00:00,
2013-05-19 08:00:00,64.6,61.9,30.12,ENE,68,3.0,3.0,91,0.00,OVC,,0.02,WeatherDisplay:10.37,2013-05-19 12:00:00,
2013-05-19 08:30:00,66.0,63.6,30.13,East,87,2.0,6.0,92,0.00,OVC,,0.02,WeatherDisplay:10.37,2013-05-19 12:30:00,
2013-05-19 09:00:00,66.6,64.5,30.15,ESE,102,0.0,6.0,93,0.10,RA,,0.12,WeatherDisplay:10.37,2013-05-19 13:00:00,
2013-05-19 09:30:00,66.4,64.0,30.14,ESE,107,2.0,4.0,92,0.26,RA,,0.38,WeatherDisplay:10.37,2013-05-19 13:30:00,
2013-05-19 10:00:00,66.5,64.4,30.14,East,87,5.0,5.0,93,0.00,OVC,,0.38,WeatherDisplay:10.37,2013-05-19 14:00:00,
2013-05-19 10:30:00,67.1,65.0,30.15,SE,127,3.0,5.0,93,0.00,OVC,,0.38,WeatherDisplay:10.37,2013-05-19 14:30:00,
2013-05-19 11:00:00,67.6,65.5,30.15,ENE,71,2.0,5.0,93,0.00,OVC,,0.38,WeatherDisplay:10.37,2013-05-19 15:00:00,
2013-05-19 11:30:00,67.3,64.9,30.15,East,89,6.0,7.0,92,0.00,OVC,,0.38,WeatherDisplay:10.37,2013-05-19 15:30:00,
2013-05-19 12:00:00,67.5,65.4,30.13,East,90,5.0,8.0,93,0.00,OVC,,0.38,WeatherDisplay:10.37,2013-05-19 16:00:00,
2013-05-19 12:30:00,69.2,66.7,30.12,East,90,3.0,6.0,92,0.00,OVC,,0.38,WeatherDisplay:10.37,2013-05-19 16:30:00,
2013-05-19 13:00:00,71.8,68.7,30.11,ESE,118,6.0,6.0,90,0.00,OVC,,0.38,WeatherDisplay:10.37,2013-05-19 17:00:00,
2013-05-19 13:30:00,73.0,69.6,30.10,ENE,68,6.0,8.0,89,0.00,OVC,,0.38,WeatherDisplay:10.37,2013-05-19 17:30:00,
2013-05-19 14:00:00,73.0,69.6,30.10,ENE,68,6.0,6.0,89,0.00,OVC,,0.38,WeatherDisplay:10.37,2013-05-19 18:00:00,
2013-05-19 14:30:00,71.8,67.7,30.09,East,88,5.0,7.0,87,0.01,OVC,,0.39,WeatherDisplay:10.37,2013-05-19 18:30:00,
2013-05-19 15:00:00,72.9,68.8,30.08,East,81,2.0,5.0,87,0.00,OVC,,0.39,WeatherDisplay:10.37,2013-05-19 19:00:00,
2013-05-19 15:30:00,73.0,68.6,30.07,ESE,104,1.0,5.0,86,0.00,-RA,,0.39,WeatherDisplay:10.37,2013-05-19 19:30:00,
2013-05-19 16:00:00,73.4,68.6,30.07,ESE,119,5.0,8.0,85,0.00,-RA,,0.39,WeatherDisplay:10.37,2013-05-19 20:00:00,
2013-05-19 16:30:00,73.6,68.1,30.07,East,95,1.0,8.0,83,0.00,BKN,,0.39,WeatherDisplay:10.37,2013-05-19 20:30:00,
2013-05-19 17:00:00,73.0,67.6,30.07,SE,140,5.0,7.0,83,0.00,BKN,,0.39,WeatherDisplay:10.37,2013-05-19 21:00:00,
2013-05-19 17:30:00,72.7,67.2,30.07,ENE,73,2.0,6.0,83,0.00,BKN,,0.39,WeatherDisplay:10.37,2013-05-19 21:30:00,
2013-05-19 18:00:00,72.1,66.3,30.07,SE,143,1.0,6.0,82,0.00,BKN,,0.39,WeatherDisplay:10.37,2013-05-19 22:00:00,
2013-05-19 18:30:00,71.6,66.2,30.07,ENE,73,1.0,6.0,83,0.00,-RA,,0.39,WeatherDisplay:10.37,2013-05-19 22:30:00,
2013-05-19 19:00:00,71.2,66.2,30.07,ENE,77,1.0,5.0,84,0.00,-RA,,0.39,WeatherDisplay:10.37,2013-05-19 23:00:00,
2013-05-19 19:30:00,70.5,65.8,30.07,East,87,3.0,5.0,85,0.00,-RA,,0.39,WeatherDisplay:10.37,2013-05-19 23:30:00,
2013-05-19 20:00:00,70.2,65.8,30.07,ENE,78,2.0,5.0,86,0.00,-RA,,0.39,WeatherDisplay:10.37,2013-05-20 00:00:00,
2013-05-19 20:30:00,69.6,65.2,30.07,East,90,1.0,3.0,86,0.00,BKN,,0.39,WeatherDisplay:10.37,2013-05-20 00:30:00,
2013-05-19 21:00:00,69.4,65.4,30.08,East,83,2.0,3.0,87,0.00,BKN,,0.39,WeatherDisplay:10.37,2013-05-20 01:00:00,
2013-05-19 21:30:00,69.1,65.4,30.08,East,90,2.0,3.0,88,0.00,FEW,,0.39,WeatherDisplay:10.37,2013-05-20 01:30:00,
2013-05-19 22:00:00,68.5,64.8,30.08,East,90,2.0,3.0,88,0.00,FEW,,0.39,WeatherDisplay:10.37,2013-05-20 02:00:00,
2013-05-19 22:30:00,68.0,65.0,30.10,ENE,77,6.0,8.0,90,0.00,OVC,,0.39,WeatherDisplay:10.37,2013-05-20 02:30:00,
2013-05-19 23:00:00,67.8,64.8,30.11,East,86,3.0,7.0,90,0.00,OVC,,0.39,WeatherDisplay:10.37,2013-05-20 03:00:00,
2013-05-19 23:30:00,67.6,64.6,30.12,East,89,2.0,5.0,90,0.00,OVC,,0.39,WeatherDisplay:10.37,2013-05-20 03:30:00,